createdAt,value
2022-12-13T00:00:56.800Z,100.00
2022-12-13T00:03:23.469Z,100.00
2022-12-13T00:05:49.906Z,100.00
2022-12-13T00:08:16.867Z,100.00
2022-12-13T00:10:47.129Z,100.00
2022-12-13T00:13:13.555Z,100.00
2022-12-13T00:15:39.927Z,100.00
2022-12-13T00:18:06.304Z,100.00
2022-12-13T00:20:32.736Z,100.00
2022-12-13T00:22:59.149Z,100.00
2022-12-13T00:25:25.920Z,100.00
2022-12-13T00:27:52.329Z,100.00
2022-12-13T00:30:18.848Z,100.00
2022-12-13T00:32:45.235Z,100.00
2022-12-13T00:35:11.774Z,100.00
2022-12-13T00:37:38.417Z,100.00
2022-12-13T00:40:05.182Z,100.00
2022-12-13T00:42:31.737Z,100.00
2022-12-13T00:44:58.125Z,100.00
2022-12-13T00:47:26.495Z,100.00
2022-12-13T00:49:52.890Z,100.00
2022-12-13T00:52:25.917Z,100.00
2022-12-13T00:54:52.374Z,100.00
2022-12-13T00:57:18.848Z,100.00
2022-12-13T00:59:45.494Z,100.00
2022-12-13T01:02:11.920Z,100.00
2022-12-13T01:04:38.761Z,100.00
2022-12-13T01:07:05.490Z,100.00
2022-12-13T01:09:33.742Z,100.00
2022-12-13T01:12:02.726Z,100.00
2022-12-13T01:14:29.975Z,100.00
2022-12-13T01:16:56.661Z,100.00
2022-12-13T01:19:28.594Z,100.00
2022-12-13T01:22:01.348Z,100.00
2022-12-13T01:24:28.831Z,100.00
2022-12-13T01:26:57.228Z,100.00
2022-12-13T01:29:26.024Z,100.00
2022-12-13T01:31:53.563Z,100.00
2022-12-13T01:34:26.518Z,100.00
2022-12-13T01:36:58.378Z,100.00
2022-12-13T01:39:26.661Z,100.00
2022-12-13T01:41:59.949Z,100.00
2022-12-13T01:44:59.874Z,100.00
2022-12-13T01:47:36.940Z,100.00
2022-12-13T01:50:09.661Z,100.00
2022-12-13T01:52:36.312Z,100.00
2022-12-13T01:55:06.306Z,100.00
2022-12-13T01:57:34.778Z,100.00
2022-12-13T02:00:01.648Z,100.00
2022-12-13T02:02:28.109Z,100.00
2022-12-13T02:05:06.909Z,100.00
2022-12-13T02:07:36.634Z,100.00
2022-12-13T02:10:06.318Z,100.00
2022-12-13T02:12:35.520Z,100.00
2022-12-13T02:15:06.282Z,100.00
2022-12-13T02:17:46.993Z,100.00
2022-12-13T02:20:40.802Z,100.00
2022-12-13T02:23:40.997Z,100.00
2022-12-13T02:26:22.843Z,100.00
2022-12-13T02:29:30.830Z,100.00
2022-12-13T02:32:18.291Z,100.00
2022-12-13T02:35:06.682Z,100.00
2022-12-13T02:37:55.898Z,100.00
2022-12-13T02:40:48.675Z,100.00
2022-12-13T02:43:33.741Z,100.00
2022-12-13T02:46:03.047Z,100.00
2022-12-13T02:48:36.343Z,100.00
2022-12-13T02:51:06.060Z,100.00
2022-12-13T02:53:34.737Z,100.00
2022-12-13T02:56:01.177Z,100.00
2022-12-13T02:58:32.934Z,100.00
2022-12-13T03:01:28.425Z,100.00
2022-12-13T03:04:11.088Z,100.00
2022-12-13T03:06:37.526Z,100.00
2022-12-13T03:09:24.402Z,100.00
2022-12-13T03:12:40.019Z,100.00
2022-12-13T03:15:25.683Z,100.00
2022-12-13T03:17:57.613Z,100.00
2022-12-13T03:20:27.105Z,100.00
2022-12-13T03:22:54.297Z,100.00
2022-12-13T03:25:31.192Z,100.00
2022-12-13T03:28:01.217Z,100.00
2022-12-13T03:30:29.206Z,100.00
2022-12-13T03:32:58.718Z,100.00
2022-12-13T03:35:34.051Z,100.00
2022-12-13T03:38:01.963Z,100.00
2022-12-13T03:40:30.075Z,100.00
2022-12-13T03:42:56.786Z,100.00
2022-12-13T03:45:26.364Z,100.00
2022-12-13T03:47:52.850Z,100.00
2022-12-13T03:50:26.435Z,100.00
2022-12-13T03:53:01.723Z,100.00
2022-12-13T03:55:28.872Z,100.00
2022-12-13T03:57:55.876Z,100.00
2022-12-13T04:00:22.466Z,100.00
2022-12-13T04:02:48.905Z,100.00
2022-12-13T04:05:15.970Z,100.00
2022-12-13T04:07:48.369Z,100.00
2022-12-13T04:10:25.126Z,100.00
2022-12-13T04:13:10.820Z,100.00
2022-12-13T04:15:37.573Z,100.00
2022-12-13T04:18:04.181Z,100.00
2022-12-13T04:20:32.111Z,100.00
2022-12-13T04:22:58.742Z,100.00
2022-12-13T04:25:25.152Z,100.00
2022-12-13T04:27:51.610Z,100.00
2022-12-13T04:30:18.119Z,100.00
2022-12-13T04:32:44.532Z,100.00
2022-12-13T04:35:10.932Z,100.00
2022-12-13T04:37:37.398Z,100.00
2022-12-13T04:40:04.169Z,100.00
2022-12-13T04:42:31.543Z,100.00
2022-12-13T04:44:58.017Z,100.00
2022-12-13T04:47:24.402Z,100.00
2022-12-13T04:49:50.813Z,100.00
2022-12-13T04:52:22.426Z,100.00
2022-12-13T04:54:55.565Z,100.00
2022-12-13T04:57:23.176Z,100.00
2022-12-13T04:59:49.820Z,100.00
2022-12-13T05:02:23.839Z,100.00
2022-12-13T05:04:53.532Z,100.00
2022-12-13T05:07:20.626Z,100.00
2022-12-13T05:09:47.036Z,100.00
2022-12-13T05:12:22.327Z,100.00
2022-12-13T05:14:49.890Z,100.00
2022-12-13T05:17:16.719Z,100.00
2022-12-13T05:19:43.162Z,100.00
2022-12-13T05:22:19.860Z,100.00
2022-12-13T05:24:46.965Z,100.00
2022-12-13T05:27:24.612Z,100.00
2022-12-13T05:30:03.429Z,100.00
2022-12-13T05:32:43.507Z,100.00
2022-12-13T05:35:14.604Z,100.00
2022-12-13T05:37:53.950Z,100.00
2022-12-13T05:40:21.485Z,100.00
2022-12-13T05:42:47.876Z,100.00
2022-12-13T05:45:17.164Z,100.00
2022-12-13T05:47:43.817Z,100.00
2022-12-13T05:50:10.737Z,100.00
2022-12-13T05:52:37.237Z,100.00
2022-12-13T05:55:04.147Z,100.00
2022-12-13T05:57:30.701Z,100.00
2022-12-13T05:59:57.145Z,100.00
2022-12-13T06:02:23.912Z,100.00
2022-12-13T06:04:50.614Z,100.00
2022-12-13T06:07:17.209Z,100.00
2022-12-13T06:09:43.652Z,100.00
2022-12-13T06:12:31.645Z,100.00
2022-12-13T06:15:01.035Z,100.00
2022-12-13T06:17:36.370Z,100.00
2022-12-13T06:20:23.384Z,100.00
2022-12-13T06:22:52.404Z,100.00
2022-12-13T06:25:31.606Z,100.00
2022-12-13T06:28:00.904Z,100.00
2022-12-13T06:30:29.186Z,100.00
2022-12-13T06:32:55.706Z,100.00
2022-12-13T06:35:27.965Z,100.00
2022-12-13T06:38:01.332Z,100.00
2022-12-13T06:40:30.220Z,100.00
2022-12-13T06:42:56.949Z,100.00
2022-12-13T06:45:23.340Z,100.00
2022-12-13T06:47:49.696Z,100.00
2022-12-13T06:50:16.244Z,100.00
2022-12-13T06:52:42.696Z,100.00
2022-12-13T06:55:09.659Z,100.00
2022-12-13T06:57:36.139Z,100.00
2022-12-13T07:00:05.007Z,100.00
2022-12-13T07:02:31.508Z,100.00
2022-12-13T07:04:58.009Z,100.00
2022-12-13T07:07:25.921Z,100.00
2022-12-13T07:09:53.024Z,100.00
2022-12-13T07:12:20.989Z,100.00
2022-12-13T07:14:47.670Z,100.00
2022-12-13T07:17:33.171Z,100.00
2022-12-13T07:20:01.117Z,100.00
2022-12-13T07:22:27.939Z,100.00
2022-12-13T07:24:54.288Z,100.00
2022-12-13T07:27:20.657Z,100.00
2022-12-13T07:29:47.019Z,100.00
2022-12-13T07:32:13.365Z,100.00
2022-12-13T07:34:39.769Z,100.00
2022-12-13T07:37:06.164Z,100.00
2022-12-13T07:39:32.565Z,100.00
2022-12-13T07:41:58.939Z,100.00
2022-12-13T07:44:25.385Z,100.00
2022-12-13T07:46:52.531Z,100.00
2022-12-13T07:49:19.010Z,100.00
2022-12-13T07:51:45.482Z,100.00
2022-12-13T07:54:12.107Z,100.00
2022-12-13T07:56:38.469Z,100.00
2022-12-13T07:59:04.926Z,100.00
2022-12-13T08:01:34.563Z,100.00
2022-12-13T08:04:02.317Z,100.00
2022-12-13T08:06:28.738Z,100.00
2022-12-13T08:08:56.414Z,100.00
2022-12-13T08:11:22.894Z,100.00
2022-12-13T08:13:49.491Z,100.00
2022-12-13T08:16:28.212Z,100.00
2022-12-13T08:19:03.001Z,100.00
2022-12-13T08:21:54.579Z,100.00
2022-12-13T08:24:23.785Z,100.00
2022-12-13T08:26:50.162Z,100.00
2022-12-13T08:29:23.460Z,100.00
2022-12-13T08:32:01.951Z,100.00
2022-12-13T08:34:28.676Z,100.00
2022-12-13T08:37:02.917Z,100.00
2022-12-13T08:39:36.124Z,100.00
2022-12-13T08:42:15.407Z,100.00
2022-12-13T08:44:44.429Z,100.00
2022-12-13T08:47:10.817Z,100.00
2022-12-13T08:49:37.190Z,100.00
2022-12-13T08:52:03.775Z,100.00
2022-12-13T08:54:33.249Z,100.00
2022-12-13T08:56:59.643Z,100.00
2022-12-13T08:59:26.553Z,100.00
2022-12-13T09:01:53.656Z,100.00
2022-12-13T09:04:31.468Z,100.00
2022-12-13T09:07:01.723Z,100.00
2022-12-13T09:09:29.315Z,100.00
2022-12-13T09:11:59.551Z,100.00
2022-12-13T09:14:34.156Z,100.00
2022-12-13T09:17:02.589Z,100.00
2022-12-13T09:19:29.594Z,100.00
2022-12-13T09:22:03.725Z,100.00
2022-12-13T09:24:36.629Z,100.00
2022-12-13T09:27:09.617Z,100.00
2022-12-13T09:29:38.193Z,100.00
2022-12-13T09:32:05.198Z,100.00
2022-12-13T09:34:33.076Z,100.00
2022-12-13T09:37:01.741Z,100.00
2022-12-13T09:39:28.987Z,100.00
2022-12-13T09:42:00.951Z,100.00
2022-12-13T09:44:45.081Z,100.00
2022-12-13T09:47:24.644Z,100.00
2022-12-13T09:49:52.041Z,100.00
2022-12-13T09:52:22.701Z,100.00
2022-12-13T09:54:54.000Z,100.00
2022-12-13T09:57:30.922Z,100.00
2022-12-13T10:00:01.543Z,100.00
2022-12-13T10:02:31.394Z,100.00
2022-12-13T10:05:23.322Z,100.00
2022-12-13T10:07:54.171Z,100.00
2022-12-13T10:10:20.689Z,100.00
2022-12-13T10:12:54.824Z,100.00
2022-12-13T10:15:22.947Z,100.00
2022-12-13T10:17:55.235Z,100.00
2022-12-13T10:20:28.646Z,100.00
2022-12-13T10:23:31.637Z,100.00
2022-12-13T10:25:46.454Z,100.00
2022-12-13T10:28:19.636Z,100.00
2022-12-13T10:30:47.100Z,100.00
2022-12-13T10:33:50.380Z,100.00
2022-12-13T10:36:33.147Z,100.00
2022-12-13T10:38:59.584Z,100.00
2022-12-13T10:41:35.197Z,100.00
2022-12-13T10:44:25.148Z,100.00
2022-12-13T10:47:02.807Z,100.00
2022-12-13T10:49:49.826Z,100.00
2022-12-13T10:52:43.688Z,100.00
2022-12-13T10:55:33.459Z,100.00
2022-12-13T10:58:09.518Z,100.00
2022-12-13T11:00:37.908Z,100.00
2022-12-13T11:03:05.215Z,100.00
2022-12-13T11:05:33.885Z,100.00
2022-12-13T11:08:14.244Z,100.00
2022-12-13T11:10:41.303Z,100.00
2022-12-13T11:13:08.800Z,100.00
2022-12-13T11:15:38.244Z,100.00
2022-12-13T11:18:08.581Z,100.00
2022-12-13T11:20:37.714Z,100.00
2022-12-13T11:23:10.050Z,100.00
2022-12-13T11:25:41.571Z,100.00
2022-12-13T11:28:27.056Z,100.00
2022-12-13T11:31:25.630Z,100.00
2022-12-13T11:34:05.634Z,100.00
2022-12-13T11:36:32.091Z,100.00
2022-12-13T11:39:25.128Z,100.00
2022-12-13T11:41:57.427Z,100.00
2022-12-13T11:44:51.000Z,100.00
2022-12-13T11:47:24.791Z,100.00
2022-12-13T11:49:52.510Z,100.00
2022-12-13T11:52:25.232Z,100.00
2022-12-13T11:55:00.613Z,100.00
2022-12-13T11:57:29.858Z,100.00
2022-12-13T12:00:33.711Z,100.00
2022-12-13T12:03:15.551Z,100.00
2022-12-13T12:05:48.290Z,100.00
2022-12-13T12:08:32.962Z,100.00
2022-12-13T12:11:19.655Z,100.00
2022-12-13T12:13:52.072Z,100.00
2022-12-13T12:16:38.817Z,100.00
2022-12-13T12:19:13.331Z,100.00
2022-12-13T12:22:13.675Z,100.00
2022-12-13T12:25:14.760Z,100.00
2022-12-13T12:28:12.075Z,100.00
2022-12-13T12:30:53.745Z,100.00
2022-12-13T12:33:53.112Z,100.00
2022-12-13T12:36:50.760Z,100.00
2022-12-13T12:39:59.962Z,100.00
2022-12-13T12:43:14.260Z,100.00
2022-12-13T12:45:56.768Z,100.00
2022-12-13T12:48:53.737Z,100.00
2022-12-13T12:51:37.803Z,100.00
2022-12-13T12:54:32.701Z,100.00
2022-12-13T12:57:03.442Z,100.00
2022-12-13T13:00:21.770Z,100.00
2022-12-13T13:03:22.306Z,100.00
2022-12-13T13:06:02.151Z,100.00
2022-12-13T13:08:55.487Z,100.00
2022-12-13T13:11:25.985Z,100.00
2022-12-13T13:14:04.165Z,100.00
2022-12-13T13:16:38.022Z,100.00
2022-12-13T13:19:13.602Z,100.00
2022-12-13T13:21:43.955Z,100.00
2022-12-13T13:24:14.850Z,100.00
2022-12-13T13:26:43.399Z,100.00
2022-12-13T13:29:27.731Z,100.00
2022-12-13T13:32:28.349Z,100.00
2022-12-13T13:35:28.160Z,100.00
2022-12-13T13:37:55.063Z,100.00
2022-12-13T13:40:39.463Z,100.00
2022-12-13T13:43:05.966Z,100.00
2022-12-13T13:45:54.658Z,100.00
2022-12-13T13:48:45.295Z,100.00
2022-12-13T13:51:30.919Z,100.00
2022-12-13T13:54:03.466Z,100.00
2022-12-13T13:57:11.862Z,100.00
2022-12-13T14:00:02.945Z,100.00
2022-12-13T14:03:08.934Z,100.00
2022-12-13T14:06:07.936Z,100.00
2022-12-13T14:08:42.229Z,100.00
2022-12-13T14:11:11.627Z,100.00
2022-12-13T14:14:22.083Z,100.00
2022-12-13T14:16:48.904Z,100.00
2022-12-13T14:19:37.941Z,100.00
2022-12-13T14:22:13.352Z,100.00
2022-12-13T14:25:17.388Z,100.00
2022-12-13T14:28:10.862Z,100.00
2022-12-13T14:30:43.212Z,100.00
2022-12-13T14:33:26.412Z,100.00
2022-12-13T14:35:58.472Z,100.00
2022-12-13T14:38:30.801Z,100.00
2022-12-13T14:41:00.757Z,100.00
2022-12-13T14:43:30.397Z,100.00
2022-12-13T14:45:59.116Z,100.00
2022-12-13T14:48:28.859Z,100.00
2022-12-13T14:50:56.480Z,100.00
2022-12-13T14:53:26.390Z,100.00
2022-12-13T14:56:08.599Z,100.00
2022-12-13T14:58:36.960Z,100.00
2022-12-13T15:01:05.466Z,100.00
2022-12-13T15:03:32.419Z,100.00
2022-12-13T15:06:01.134Z,100.00
2022-12-13T15:08:28.093Z,100.00
2022-12-13T15:10:57.612Z,100.00
2022-12-13T15:13:24.190Z,100.00
2022-12-13T15:15:57.953Z,100.00
2022-12-13T15:18:26.262Z,100.00
2022-12-13T15:20:55.010Z,100.00
2022-12-13T15:23:21.290Z,100.00
2022-12-13T15:25:59.158Z,100.00
2022-12-13T15:28:32.808Z,99.97
2022-12-13T15:31:01.112Z,100.00
2022-12-13T15:33:34.453Z,100.00
2022-12-13T15:36:12.131Z,100.00
2022-12-13T15:38:43.946Z,99.87
2022-12-13T15:41:18.936Z,99.93
2022-12-13T15:43:49.555Z,99.22
2022-12-13T15:46:24.841Z,99.37
2022-12-13T15:48:53.469Z,99.29
2022-12-13T15:51:29.715Z,99.52
2022-12-13T15:54:24.061Z,99.61
2022-12-13T15:57:25.307Z,99.20
2022-12-13T16:00:31.365Z,99.29
2022-12-13T16:03:14.907Z,99.36
2022-12-13T16:05:50.375Z,98.94
2022-12-13T16:08:30.917Z,99.15
2022-12-13T16:10:58.259Z,98.86
2022-12-13T16:13:30.974Z,98.49
2022-12-13T16:16:08.629Z,98.74
2022-12-13T16:18:45.355Z,98.35
2022-12-13T16:21:11.878Z,98.80
2022-12-13T16:23:38.219Z,98.78
2022-12-13T16:26:08.882Z,98.76
2022-12-13T16:28:36.052Z,98.44
2022-12-13T16:31:14.014Z,99.11
2022-12-13T16:33:40.366Z,98.75
2022-12-13T16:36:09.149Z,98.98
2022-12-13T16:38:35.533Z,99.01
2022-12-13T16:41:08.215Z,98.95
2022-12-13T16:43:39.647Z,98.93
2022-12-13T16:47:09.981Z,99.07
2022-12-13T16:48:54.357Z,99.21
2022-12-13T16:51:21.560Z,98.71
2022-12-13T16:53:48.420Z,98.83
2022-12-13T16:56:21.327Z,99.02
2022-12-13T16:58:50.952Z,98.97
2022-12-13T17:01:20.881Z,99.44
2022-12-13T17:03:47.914Z,99.27
2022-12-13T17:06:19.451Z,99.32
2022-12-13T17:08:45.861Z,99.43
2022-12-13T17:11:17.717Z,99.53
2022-12-13T17:13:46.836Z,99.34
2022-12-13T17:16:14.098Z,99.33
2022-12-13T17:18:43.738Z,99.20
2022-12-13T17:21:10.559Z,99.54
2022-12-13T17:23:36.970Z,99.62
2022-12-13T17:26:08.206Z,99.05
2022-12-13T17:28:34.921Z,99.24
2022-12-13T17:31:09.167Z,99.38
2022-12-13T17:33:36.350Z,99.32
2022-12-13T17:36:05.745Z,99.42
2022-12-13T17:38:32.603Z,99.26
2022-12-13T17:41:00.552Z,99.07
2022-12-13T17:43:34.461Z,98.81
2022-12-13T17:46:04.525Z,99.16
2022-12-13T17:48:39.254Z,98.86
2022-12-13T17:51:08.412Z,98.26
2022-12-13T17:53:35.994Z,98.58
2022-12-13T17:56:06.385Z,98.61
2022-12-13T17:58:33.251Z,98.14
2022-12-13T18:01:09.312Z,98.49
2022-12-13T18:03:35.700Z,98.52
2022-12-13T18:06:02.116Z,98.03
2022-12-13T18:08:28.899Z,98.08
2022-12-13T18:11:23.920Z,98.20
2022-12-13T18:13:45.440Z,98.05
2022-12-13T18:16:14.600Z,98.01
2022-12-13T18:18:42.242Z,97.93
2022-12-13T18:21:21.754Z,97.82
2022-12-13T18:23:55.123Z,97.72
2022-12-13T18:26:23.455Z,97.66
2022-12-13T18:28:50.080Z,97.69
2022-12-13T18:31:20.004Z,97.54
2022-12-13T18:33:47.828Z,97.58
2022-12-13T18:36:14.936Z,98.09
2022-12-13T18:38:42.222Z,97.92
2022-12-13T18:41:12.499Z,97.63
2022-12-13T18:43:38.869Z,97.42
2022-12-13T18:46:05.641Z,97.98
2022-12-13T18:48:32.493Z,97.61
2022-12-13T18:51:00.513Z,97.59
2022-12-13T18:53:28.012Z,97.56
2022-12-13T18:56:01.738Z,97.76
2022-12-13T18:58:28.217Z,97.62
2022-12-13T19:00:56.091Z,97.33
2022-12-13T19:03:22.703Z,97.75
2022-12-13T19:05:49.305Z,97.96
2022-12-13T19:08:15.645Z,97.63
2022-12-13T19:10:45.505Z,97.96
2022-12-13T19:13:12.105Z,97.73
2022-12-13T19:15:39.978Z,97.94
2022-12-13T19:18:06.604Z,97.83
2022-12-13T19:20:32.992Z,97.60
2022-12-13T19:22:59.404Z,97.88
2022-12-13T19:25:25.832Z,98.22
2022-12-13T19:27:56.573Z,97.87
2022-12-13T19:30:23.870Z,97.98
2022-12-13T19:32:50.339Z,98.00
2022-12-13T19:35:16.804Z,98.41
2022-12-13T19:37:43.143Z,98.18
2022-12-13T19:40:09.850Z,98.25
2022-12-13T19:42:36.202Z,98.04
2022-12-13T19:45:02.572Z,97.77
2022-12-13T19:47:29.017Z,97.90
2022-12-13T19:49:55.360Z,97.80
2022-12-13T19:52:22.398Z,98.10
2022-12-13T19:54:48.982Z,98.12
2022-12-13T19:57:15.374Z,98.68
2022-12-13T19:59:41.823Z,98.14
2022-12-13T20:02:09.519Z,98.62
2022-12-13T20:04:35.991Z,98.72
2022-12-13T20:07:02.357Z,98.88
2022-12-13T20:09:29.721Z,98.71
2022-12-13T20:11:56.103Z,98.55
2022-12-13T20:14:22.509Z,98.57
2022-12-13T20:16:48.888Z,98.42
2022-12-13T20:19:15.334Z,98.78
2022-12-13T20:21:41.818Z,98.52
2022-12-13T20:24:08.336Z,98.21
2022-12-13T20:26:35.006Z,98.00
2022-12-13T20:29:01.480Z,98.21
2022-12-13T20:31:33.466Z,98.17
2022-12-13T20:34:06.730Z,98.06
2022-12-13T20:36:33.200Z,98.36
2022-12-13T20:39:01.220Z,98.09
2022-12-13T20:41:30.691Z,97.98
2022-12-13T20:43:59.080Z,97.58
2022-12-13T20:46:27.191Z,97.97
2022-12-13T20:48:55.188Z,97.33
2022-12-13T20:51:25.373Z,97.18
2022-12-13T20:53:53.060Z,97.13
2022-12-13T20:56:22.624Z,96.93
2022-12-13T20:58:50.431Z,96.80
2022-12-13T21:01:22.780Z,96.68
2022-12-13T21:03:49.871Z,96.72
2022-12-13T21:06:16.258Z,96.58
2022-12-13T21:08:51.695Z,96.44
2022-12-13T21:11:30.233Z,96.96
2022-12-13T21:14:22.306Z,96.38
2022-12-13T21:17:00.923Z,96.16
2022-12-13T21:19:38.915Z,96.38
2022-12-13T21:22:06.277Z,96.53
2022-12-13T21:24:32.649Z,96.04
2022-12-13T21:26:59.890Z,96.53
2022-12-13T21:29:26.301Z,96.23
2022-12-13T21:31:53.430Z,96.05
2022-12-13T21:34:21.466Z,96.35
2022-12-13T21:36:50.029Z,96.17
2022-12-13T21:39:27.678Z,96.00
2022-12-13T21:41:54.643Z,96.19
2022-12-13T21:44:21.650Z,96.09
2022-12-13T21:47:11.211Z,96.16
2022-12-13T21:49:34.403Z,96.34
2022-12-13T21:52:00.906Z,96.15
2022-12-13T21:54:27.354Z,96.17
2022-12-13T21:57:12.924Z,95.90
2022-12-13T21:59:39.274Z,95.74
2022-12-13T22:02:18.388Z,95.76
2022-12-13T22:04:46.274Z,95.74
2022-12-13T22:07:20.441Z,95.43
2022-12-13T22:09:48.197Z,95.45
2022-12-13T22:12:19.739Z,95.15
2022-12-13T22:14:46.622Z,94.97
2022-12-13T22:17:13.621Z,95.34
2022-12-13T22:19:40.011Z,94.73
2022-12-13T22:22:06.813Z,94.93
2022-12-13T22:24:33.181Z,95.14
2022-12-13T22:26:59.616Z,94.74
2022-12-13T22:29:26.083Z,94.50
2022-12-13T22:31:52.497Z,94.44
2022-12-13T22:34:18.993Z,94.46
2022-12-13T22:36:45.471Z,94.34
2022-12-13T22:39:16.856Z,93.80
2022-12-13T22:41:43.687Z,93.83
2022-12-13T22:44:14.709Z,93.47
2022-12-13T22:46:41.508Z,93.60
2022-12-13T22:49:09.246Z,93.92
2022-12-13T22:51:36.395Z,93.81
2022-12-13T22:54:03.180Z,93.35
2022-12-13T22:56:30.147Z,93.08
2022-12-13T22:58:58.449Z,92.94
2022-12-13T23:01:27.546Z,92.97
2022-12-13T23:03:54.721Z,93.01
2022-12-13T23:06:22.328Z,92.86
2022-12-13T23:08:53.927Z,92.79
2022-12-13T23:11:39.523Z,92.68
2022-12-13T23:14:08.294Z,92.81
2022-12-13T23:16:35.536Z,92.40
2022-12-13T23:19:32.281Z,92.81
2022-12-13T23:21:50.429Z,92.70
2022-12-13T23:24:17.019Z,92.65
2022-12-13T23:26:43.425Z,92.36
2022-12-13T23:29:10.785Z,92.72
2022-12-13T23:31:39.649Z,92.82
2022-12-13T23:34:06.831Z,92.37
2022-12-13T23:36:34.059Z,92.21
2022-12-13T23:39:02.383Z,92.24
2022-12-13T23:41:33.654Z,92.38
2022-12-13T23:44:00.858Z,92.22
2022-12-13T23:46:30.185Z,92.18
2022-12-13T23:48:57.655Z,92.22
2022-12-13T23:51:24.240Z,92.00
2022-12-13T23:53:50.690Z,92.43
2022-12-13T23:56:17.988Z,92.31
2022-12-13T23:58:45.521Z,92.37
